Terminal Aerodrome Forecast
Issued by NWS

Home | Current Version | Previous Version | Text Only | Print | Product List | Glossary On
Versions: 1 2 3 4 5 6 7 8 9 10 11 12
759
FTUS45 KRIW 041728
TAFCOD
TAF
KCOD 041728Z 0418/0518 22007KT P6SM SCT250
     FM041900 14008KT P6SM SCT100
     FM050400 22008KT P6SM FEW100
      AMD LTD TO CLD VIS AND WIND=

USA.gov is the U.S. government's official web portal to all federal, state and local government web resources and services.